Time;durP1;ratioP1;P1;durP2;ratioP2;P2;SDS_P1;SDS_P2;PMS_P1;PMS_P2;Temp;Humidity;BMP_temperature;BMP_pressure;BME280_temperature;BME280_humidity;BME280_pressure;Samples;Min_cycle;Max_cycle;Signal;HPM_P1;HPM_P2
2023/03/05 00:01:08;;;;;;;4.60;0.80;;;26.00;99.90;;;;;;5079991;28;20600;-77
2023/03/05 00:03:40;;;;;;;1.42;0.43;;;26.10;99.90;;;;;;5079750;28;20927;-77
2023/03/05 00:06:13;;;;;;;1.27;0.50;;;26.20;99.90;;;;;;5080556;27;20207;-77
2023/03/05 00:08:44;;;;;;;4.78;0.60;;;26.20;99.90;;;;;;5079908;28;20570;-75
2023/03/05 00:11:16;;;;;;;2.60;0.55;;;26.20;99.90;;;;;;5080516;28;20565;-77
2023/03/05 00:13:47;;;;;;;1.92;0.88;;;26.30;99.90;;;;;;5081062;28;20202;-76
2023/03/05 00:16:19;;;;;;;2.38;0.70;;;26.40;99.90;;;;;;5079801;28;20207;-78
2023/03/05 00:18:50;;;;;;;1.38;0.43;;;26.50;99.90;;;;;;5080423;28;20210;-77
2023/03/05 00:21:26;;;;;;;3.40;0.85;;;26.60;99.90;;;;;;5079105;28;20205;-74
2023/03/05 00:23:59;;;;;;;1.95;0.50;;;26.60;99.90;;;;;;5079917;28;20206;-76
2023/03/05 00:26:33;;;;;;;1.52;0.50;;;26.60;99.90;;;;;;5079534;28;20217;-76
2023/03/05 00:29:04;;;;;;;3.45;0.70;;;26.70;99.90;;;;;;5080605;28;20311;-76
2023/03/05 00:31:37;;;;;;;1.40;0.77;;;26.80;99.90;;;;;;5078939;28;20206;-76
2023/03/05 00:34:10;;;;;;;2.03;0.60;;;26.80;99.90;;;;;;5079459;28;20204;-76
2023/03/05 00:36:45;;;;;;;4.47;0.88;;;26.90;99.90;;;;;;5083259;28;20206;-76
2023/03/05 00:39:17;;;;;;;2.75;0.73;;;26.90;99.90;;;;;;5078771;28;20653;-76
2023/03/05 00:41:48;;;;;;;1.70;0.60;;;26.80;99.90;;;;;;5077794;28;20199;-76
2023/03/05 00:44:19;;;;;;;1.75;0.60;;;26.90;99.90;;;;;;5078167;28;20221;-77
2023/03/05 00:46:51;;;;;;;1.38;0.50;;;27.00;99.90;;;;;;5104515;28;20241;-76
2023/03/05 00:49:22;;;;;;;2.58;0.80;;;27.10;99.90;;;;;;5091856;28;20222;-76
2023/03/05 00:51:56;;;;;;;3.78;0.77;;;27.20;99.90;;;;;;5094200;28;20591;-76
2023/03/05 00:54:27;;;;;;;3.83;0.85;;;27.20;99.90;;;;;;5100334;28;20213;-77
2023/03/05 00:56:58;;;;;;;3.72;0.90;;;27.30;99.90;;;;;;5112462;28;20628;-77
2023/03/05 00:59:29;;;;;;;3.50;0.85;;;27.20;99.90;;;;;;5111028;28;20199;-76
2023/03/05 01:02:00;;;;;;;6.30;1.20;;;27.30;99.90;;;;;;5091719;28;20203;-76
2023/03/05 01:04:31;;;;;;;3.78;0.98;;;27.30;99.90;;;;;;5091844;28;20202;-77
2023/03/05 01:07:05;;;;;;;4.07;1.02;;;27.40;99.90;;;;;;5091335;28;20196;-76
2023/03/05 01:09:36;;;;;;;2.95;0.73;;;27.30;99.90;;;;;;5102990;28;20660;-77
2023/03/05 01:12:07;;;;;;;4.15;1.10;;;27.40;99.90;;;;;;5105331;28;20209;-76
2023/03/05 01:14:38;;;;;;;7.28;1.38;;;27.50;99.90;;;;;;5111960;28;20675;-76
2023/03/05 01:17:09;;;;;;;5.80;1.10;;;27.60;99.90;;;;;;5106210;28;20654;-77
2023/03/05 01:19:40;;;;;;;4.97;1.30;;;27.60;99.90;;;;;;5091523;28;20563;-76
2023/03/05 01:22:14;;;;;;;5.30;1.10;;;27.70;99.90;;;;;;5094987;28;20196;-76
2023/03/05 01:24:45;;;;;;;5.50;1.10;;;27.60;99.90;;;;;;5102851;28;20229;-76
2023/03/05 01:27:16;;;;;;;3.30;1.10;;;27.60;99.90;;;;;;5111938;28;20556;-76
2023/03/05 01:29:47;;;;;;;5.43;1.23;;;27.70;99.90;;;;;;5098334;28;20657;-76
2023/03/05 01:32:18;;;;;;;4.22;0.80;;;27.80;99.90;;;;;;5105127;28;20195;-76
2023/03/05 01:34:49;;;;;;;4.90;1.33;;;27.90;99.90;;;;;;5107570;28;20649;-76
2023/03/05 01:37:22;;;;;;;3.95;1.10;;;27.90;99.90;;;;;;5109263;28;20654;-75
2023/03/05 01:39:54;;;;;;;4.93;1.27;;;27.90;99.90;;;;;;5095867;28;20206;-76
2023/03/05 01:42:25;;;;;;;6.03;1.33;;;27.90;99.90;;;;;;5112005;27;20313;-77
2023/03/05 01:45:08;;;;;;;8.82;1.30;;;27.90;99.90;;;;;;5105022;28;20207;-77
2023/03/05 01:47:40;;;;;;;7.43;1.45;;;28.00;99.90;;;;;;5098289;28;20211;-74
2023/03/05 01:50:14;;;;;;;4.85;1.70;;;28.00;99.90;;;;;;5097321;28;20206;-75
2023/03/05 01:52:51;;;;;;;4.55;1.20;;;28.00;99.90;;;;;;5100960;28;20197;-75
2023/03/05 01:55:25;;;;;;;5.72;1.15;;;27.90;99.90;;;;;;5094520;28;20201;-77
2023/03/05 01:58:00;;;;;;;8.38;1.63;;;27.90;99.90;;;;;;5111474;28;20194;-76
2023/03/05 02:00:35;;;;;;;5.82;1.50;;;27.90;99.90;;;;;;5109948;28;20224;-76
2023/03/05 02:03:10;;;;;;;8.70;1.60;;;27.90;99.90;;;;;;5108785;28;20548;-76
2023/03/05 02:05:43;;;;;;;3.88;1.20;;;27.90;99.90;;;;;;5094979;28;20708;-76
2023/03/05 02:08:18;;;;;;;6.63;1.60;;;28.00;99.90;;;;;;5091625;28;20219;-77
2023/03/05 02:10:50;;;;;;;5.60;1.15;;;28.00;99.90;;;;;;5110039;28;20724;-77
2023/03/05 02:13:24;;;;;;;8.00;1.40;;;28.00;99.90;;;;;;5103104;28;20203;-77
2023/03/05 02:15:57;;;;;;;3.97;1.15;;;28.00;99.90;;;;;;5094748;28;20190;-78
2023/03/05 02:18:28;;;;;;;4.50;1.20;;;28.10;99.90;;;;;;5108397;27;20209;-78
2023/03/05 02:21:06;;;;;;;5.35;1.30;;;28.20;99.90;;;;;;5100677;28;20603;-76
2023/03/05 02:23:39;;;;;;;4.32;1.17;;;28.20;99.90;;;;;;5090579;28;20583;-78
2023/03/05 02:26:12;;;;;;;3.95;1.25;;;28.30;99.90;;;;;;5106822;28;20194;-78
2023/03/05 02:28:45;;;;;;;6.00;1.40;;;28.30;99.90;;;;;;5112249;28;20214;-77
2023/03/05 02:31:18;;;;;;;5.60;1.33;;;28.30;99.90;;;;;;5093630;28;20210;-77
2023/03/05 02:33:50;;;;;;;5.13;1.38;;;28.40;99.90;;;;;;5090397;28;20203;-77
2023/03/05 02:36:23;;;;;;;5.13;0.98;;;28.40;99.90;;;;;;5109963;28;20574;-77
2023/03/05 02:38:55;;;;;;;3.60;1.15;;;28.50;99.90;;;;;;5098443;28;20219;-78
2023/03/05 02:41:28;;;;;;;3.67;1.00;;;28.60;99.90;;;;;;5100288;28;20200;-78
2023/03/05 02:43:59;;;;;;;6.30;1.25;;;28.60;99.90;;;;;;5093273;28;20204;-80
2023/03/05 02:46:30;;;;;;;4.82;1.10;;;28.60;99.90;;;;;;5108973;28;20183;-77
2023/03/05 02:49:03;;;;;;;4.22;1.23;;;28.70;99.90;;;;;;5120094;28;20225;-77
2023/03/05 02:51:40;;;;;;;3.00;1.00;;;28.70;99.90;;;;;;5092555;28;20592;-78
2023/03/05 02:54:11;;;;;;;5.57;1.30;;;28.70;99.90;;;;;;5091235;28;20203;-78
2023/03/05 02:56:42;;;;;;;4.35;1.20;;;28.70;99.90;;;;;;5102060;28;20293;-77
2023/03/05 02:59:13;;;;;;;3.70;1.00;;;28.80;99.90;;;;;;5100666;28;20199;-78
2023/03/05 03:01:44;;;;;;;3.75;1.20;;;28.80;99.90;;;;;;5101156;28;20197;-78
2023/03/05 03:04:15;;;;;;;3.05;0.85;;;29.00;99.90;;;;;;5108903;28;20205;-77
2023/03/05 03:06:49;;;;;;;3.35;0.85;;;29.00;99.90;;;;;;5107196;28;20195;-78
2023/03/05 03:09:20;;;;;;;3.38;1.20;;;29.00;99.90;;;;;;5109683;28;20229;-77
2023/03/05 03:11:51;;;;;;;2.70;1.00;;;29.00;99.90;;;;;;5091274;28;20209;-78
2023/03/05 03:14:22;;;;;;;3.80;0.90;;;29.00;99.90;;;;;;5091692;28;20223;-78
2023/03/05 03:16:53;;;;;;;8.18;1.25;;;29.00;99.90;;;;;;5107503;28;20202;-78
2023/03/05 03:19:24;;;;;;;6.60;1.20;;;29.10;99.90;;;;;;5108893;28;20202;-78
2023/03/05 03:21:58;;;;;;;3.95;1.00;;;29.20;99.90;;;;;;5093076;28;20191;-78
2023/03/05 03:24:29;;;;;;;3.50;0.90;;;29.30;99.90;;;;;;5100753;28;20235;-78
2023/03/05 03:27:00;;;;;;;1.88;0.82;;;29.30;99.90;;;;;;5100768;28;20195;-78
2023/03/05 03:29:31;;;;;;;4.47;0.98;;;29.30;99.90;;;;;;5093453;28;20211;-77
2023/03/05 03:32:03;;;;;;;6.10;0.90;;;29.40;99.90;;;;;;5091998;28;20206;-77
2023/03/05 03:34:34;;;;;;;3.17;1.00;;;29.30;99.90;;;;;;5099674;28;20197;-77
2023/03/05 03:37:07;;;;;;;5.05;1.20;;;29.30;99.90;;;;;;5115370;28;20202;-77
2023/03/05 03:39:38;;;;;;;4.18;1.20;;;29.30;99.90;;;;;;5109745;28;20195;-76
2023/03/05 03:42:10;;;;;;;3.58;1.10;;;29.40;99.90;;;;;;5103893;28;20199;-78
2023/03/05 03:44:41;;;;;;;6.05;1.05;;;29.40;99.90;;;;;;5108760;27;20194;-77
2023/03/05 03:47:12;;;;;;;8.63;1.40;;;29.50;99.90;;;;;;5101317;28;20229;-78
2023/03/05 03:49:44;;;;;;;6.53;1.10;;;29.50;99.90;;;;;;5114581;28;20598;-76
2023/03/05 03:52:18;;;;;;;2.45;1.08;;;29.60;99.90;;;;;;5118424;27;20209;-76
2023/03/05 03:54:49;;;;;;;4.15;0.93;;;29.50;99.90;;;;;;5115734;28;20286;-77
2023/03/05 03:57:20;;;;;;;3.03;0.93;;;29.40;99.90;;;;;;5114423;28;20557;-78
2023/03/05 03:59:51;;;;;;;4.55;0.95;;;29.40;99.90;;;;;;5103157;28;20218;-76
2023/03/05 04:02:22;;;;;;;2.88;0.80;;;29.30;99.90;;;;;;5110674;28;20195;-75
2023/03/05 04:04:54;;;;;;;3.85;1.20;;;29.30;99.90;;;;;;5098987;28;20217;-77
2023/03/05 04:07:27;;;;;;;6.38;1.40;;;29.20;99.90;;;;;;5114490;28;20656;-77
2023/03/05 04:09:58;;;;;;;6.45;1.90;;;29.30;99.90;;;;;;5111185;28;20432;-77
2023/03/05 04:12:29;;;;;;;7.88;1.10;;;29.20;99.90;;;;;;5103107;28;20191;-77
2023/03/05 04:15:00;;;;;;;2.90;1.08;;;29.10;99.90;;;;;;5111771;28;20210;-77
2023/03/05 04:17:31;;;;;;;5.68;1.00;;;29.10;99.90;;;;;;5104270;28;20660;-77
2023/03/05 04:20:03;;;;;;;5.00;1.30;;;28.90;99.90;;;;;;5092446;28;20206;-77
2023/03/05 04:22:39;;;;;;;2.20;0.95;;;29.00;99.90;;;;;;5092990;28;20298;-77
2023/03/05 04:25:10;;;;;;;5.28;1.15;;;29.00;99.90;;;;;;5105612;28;20538;-77
2023/03/05 04:27:41;;;;;;;4.28;1.10;;;29.00;99.90;;;;;;5112079;28;20199;-76
2023/03/05 04:30:16;;;;;;;5.65;1.17;;;29.00;99.90;;;;;;5102939;28;20226;-77
2023/03/05 04:32:47;;;;;;;5.90;1.25;;;29.00;99.90;;;;;;5112881;28;20202;-75
2023/03/05 04:35:19;;;;;;;4.55;1.10;;;29.10;99.90;;;;;;5097722;27;20195;-76
2023/03/05 04:37:52;;;;;;;4.18;1.13;;;29.00;99.90;;;;;;5113947;28;20305;-77
2023/03/05 04:40:23;;;;;;;3.67;1.00;;;29.00;99.90;;;;;;5112433;28;20198;-77
2023/03/05 04:42:54;;;;;;;5.15;1.17;;;29.00;99.90;;;;;;5112437;27;20225;-76
2023/03/05 04:45:25;;;;;;;6.20;1.30;;;29.00;99.90;;;;;;5110191;28;20218;-77
2023/03/05 04:47:57;;;;;;;6.70;1.88;;;29.00;99.90;;;;;;5098536;28;20206;-77
2023/03/05 04:50:29;;;;;;;5.95;1.73;;;29.00;99.90;;;;;;5091470;28;20253;-76
2023/03/05 04:53:02;;;;;;;5.47;1.40;;;29.00;99.90;;;;;;5102860;28;20565;-75
2023/03/05 04:55:33;;;;;;;3.65;1.30;;;28.80;99.90;;;;;;5098961;28;20191;-76
2023/03/05 04:58:04;;;;;;;5.15;1.30;;;28.90;99.90;;;;;;5104293;28;20211;-76
2023/03/05 05:00:35;;;;;;;5.85;1.20;;;28.90;99.90;;;;;;5107280;28;20207;-76
2023/03/05 05:03:06;;;;;;;8.80;1.23;;;28.90;99.90;;;;;;5092404;28;20195;-76
2023/03/05 05:05:38;;;;;;;6.13;1.17;;;28.90;99.90;;;;;;5096688;28;20199;-76
2023/03/05 05:08:11;;;;;;;5.53;1.23;;;28.80;99.90;;;;;;5093246;28;20658;-76
2023/03/05 05:10:42;;;;;;;4.28;1.20;;;28.70;99.90;;;;;;5092069;28;20207;-76
2023/03/05 05:13:13;;;;;;;4.57;1.15;;;28.60;99.90;;;;;;5112194;28;20683;-77
2023/03/05 05:15:44;;;;;;;5.38;1.27;;;28.40;99.90;;;;;;5112224;28;20196;-76
2023/03/05 05:18:16;;;;;;;5.18;1.45;;;28.30;99.90;;;;;;5108952;28;20199;-76
2023/03/05 05:20:47;;;;;;;4.22;1.08;;;28.40;99.90;;;;;;5095687;28;20570;-76
2023/03/05 05:23:21;;;;;;;5.28;1.17;;;28.40;99.90;;;;;;5101350;28;20215;-76
2023/03/05 05:26:00;;;;;;;5.35;1.40;;;28.40;99.90;;;;;;5102687;28;20230;-76
2023/03/05 05:28:31;;;;;;;4.95;1.30;;;28.40;99.90;;;;;;5102186;28;20190;-77
2023/03/05 05:31:02;;;;;;;5.05;1.10;;;28.30;99.90;;;;;;5097286;28;20203;-76
2023/03/05 05:33:33;;;;;;;4.95;1.10;;;28.40;99.90;;;;;;5110172;28;20225;-76
2023/03/05 05:36:07;;;;;;;7.40;1.58;;;28.40;99.90;;;;;;5110202;28;20220;-76
2023/03/05 05:38:40;;;;;;;4.45;0.93;;;28.60;99.90;;;;;;5091367;28;20203;-77
2023/03/05 05:41:13;;;;;;;7.57;1.40;;;28.60;99.90;;;;;;5091177;28;20218;-76
2023/03/05 05:43:44;;;;;;;5.20;1.30;;;28.50;99.90;;;;;;5099521;28;20197;-76
2023/03/05 05:46:17;;;;;;;5.00;1.30;;;28.40;99.90;;;;;;5109046;28;20191;-76
2023/03/05 05:48:48;;;;;;;5.25;1.40;;;28.40;99.90;;;;;;5096465;28;20194;-77
2023/03/05 05:51:21;;;;;;;6.00;1.40;;;28.30;99.90;;;;;;5096336;28;20206;-77
2023/03/05 05:53:55;;;;;;;4.72;1.20;;;28.60;99.90;;;;;;5093392;28;20195;-77
2023/03/05 05:56:26;;;;;;;8.05;1.23;;;28.70;99.90;;;;;;5115688;28;20195;-76
2023/03/05 05:58:57;;;;;;;7.47;1.42;;;29.00;99.90;;;;;;5102374;28;20230;-77
2023/03/05 06:01:30;;;;;;;7.80;1.30;;;29.00;99.90;;;;;;5098523;28;20199;-77
2023/03/05 06:04:02;;;;;;;5.25;1.27;;;29.20;99.90;;;;;;5108755;28;20205;-77
2023/03/05 06:06:33;;;;;;;7.50;1.40;;;29.30;99.90;;;;;;5093343;28;20329;-78
2023/03/05 06:09:07;;;;;;;5.78;1.40;;;29.50;99.90;;;;;;5090252;28;20211;-78
2023/03/05 06:11:38;;;;;;;6.80;1.30;;;29.70;99.90;;;;;;5091341;28;20211;-78
2023/03/05 06:14:09;;;;;;;9.10;1.48;;;29.60;99.90;;;;;;5091050;28;20199;-78
2023/03/05 06:16:40;;;;;;;12.48;1.38;;;29.70;99.90;;;;;;5093230;28;20223;-77
2023/03/05 06:19:14;;;;;;;829.08;26.60;;;29.70;99.90;;;;;;5112011;28;20206;-78
2023/03/05 06:21:46;;;;;;;1072.40;37.55;;;30.00;99.90;;;;;;5096428;28;20561;-78
2023/03/05 06:24:21;;;;;;;413.75;13.27;;;30.00;99.90;;;;;;5111042;28;20222;-77
2023/03/05 06:26:52;;;;;;;663.88;23.67;;;30.20;99.90;;;;;;5111462;28;20661;-78
2023/03/05 06:29:23;;;;;;;133.90;7.28;;;30.40;99.90;;;;;;5108241;28;20223;-77
2023/03/05 06:31:58;;;;;;;36.92;3.13;;;30.50;99.90;;;;;;5097856;28;20610;-79
2023/03/05 06:34:29;;;;;;;8.48;1.33;;;30.70;99.90;;;;;;5102592;28;20602;-79
2023/03/05 06:37:00;;;;;;;9.40;1.60;;;30.70;99.90;;;;;;5092100;28;20191;-78
2023/03/05 06:39:33;;;;;;;10.45;1.90;;;30.70;99.90;;;;;;5092828;28;20198;-78
2023/03/05 06:42:04;;;;;;;6.88;1.60;;;30.70;99.90;;;;;;5093694;28;20591;-77
2023/03/05 06:44:36;;;;;;;3.63;1.20;;;30.70;99.90;;;;;;5112354;28;20194;-78
2023/03/05 06:47:09;;;;;;;5.68;1.23;;;30.80;99.90;;;;;;5105594;28;20195;-78
2023/03/05 06:49:40;;;;;;;7.50;1.40;;;30.80;99.90;;;;;;5113102;28;20258;-77
2023/03/05 06:52:13;;;;;;;6.00;1.30;;;30.90;99.90;;;;;;5105297;28;20202;-78
2023/03/05 06:54:46;;;;;;;6.80;1.38;;;30.90;99.90;;;;;;5096019;28;20199;-78
2023/03/05 06:57:17;;;;;;;7.38;1.55;;;31.10;99.90;;;;;;5093128;28;20581;-78
2023/03/05 07:00:10;;;;;;;6.90;1.42;;;31.30;99.90;;;;;;5105554;28;20191;-78
2023/03/05 07:02:42;;;;;;;5.57;1.50;;;31.20;99.90;;;;;;5083067;28;20195;-78
2023/03/05 07:05:13;;;;;;;11.23;1.70;;;31.30;99.90;;;;;;5091814;28;20196;-77
2023/03/05 07:07:44;;;;;;;6.65;1.35;;;31.30;99.90;;;;;;5093870;28;20203;-77
2023/03/05 07:10:19;;;;;;;8.13;1.58;;;31.20;99.90;;;;;;5095039;28;20222;-78
2023/03/05 07:12:50;;;;;;;7.45;1.50;;;31.40;99.90;;;;;;5100548;28;20605;-78
2023/03/05 07:15:21;;;;;;;6.47;1.52;;;31.60;99.90;;;;;;5102117;28;20219;-78
2023/03/05 07:17:52;;;;;;;7.80;1.92;;;31.70;99.90;;;;;;5103880;28;20194;-77
2023/03/05 07:20:23;;;;;;;5.68;1.40;;;31.50;99.90;;;;;;5097844;28;20199;-78
2023/03/05 07:22:54;;;;;;;4.85;1.20;;;31.70;99.90;;;;;;5100421;28;20649;-78
2023/03/05 07:25:29;;;;;;;7.00;1.40;;;31.60;99.90;;;;;;5104632;28;20227;-77
2023/03/05 07:28:00;;;;;;;5.68;1.17;;;31.60;99.90;;;;;;5110562;28;20677;-77
2023/03/05 07:30:31;;;;;;;7.65;1.70;;;31.50;99.90;;;;;;5103463;27;20219;-78
2023/03/05 07:33:03;;;;;;;5.90;1.38;;;31.50;99.90;;;;;;5100732;28;20657;-76
2023/03/05 07:35:34;;;;;;;5.43;1.52;;;31.40;99.90;;;;;;5114140;28;20198;-80
2023/03/05 07:38:05;;;;;;;7.75;1.60;;;31.30;99.90;;;;;;5108853;28;20641;-78
2023/03/05 07:40:38;;;;;;;7.00;1.70;;;31.20;99.90;;;;;;5110167;27;20191;-78
2023/03/05 07:43:09;;;;;;;8.20;1.50;;;30.80;99.90;;;;;;5097655;28;20661;-78
2023/03/05 07:45:44;;;;;;;7.57;1.80;;;30.60;99.90;;;;;;5111602;28;20182;-77
2023/03/05 07:48:19;;;;;;;9.27;1.90;;;30.20;99.90;;;;;;5104860;28;20221;-77
2023/03/05 07:50:50;;;;;;;7.05;1.60;;;29.80;99.90;;;;;;5093374;28;20486;-77
2023/03/05 07:53:21;;;;;;;7.70;1.55;;;29.50;99.90;;;;;;5092839;28;20202;-77
2023/03/05 07:55:54;;;;;;;7.50;1.60;;;29.20;99.90;;;;;;5093073;28;20198;-77
2023/03/05 07:58:28;;;;;;;8.35;1.88;;;28.80;99.90;;;;;;5104396;28;20195;-77
2023/03/05 08:00:59;;;;;;;10.85;1.80;;;28.50;99.90;;;;;;5112365;28;20195;-76
2023/03/05 08:03:30;;;;;;;9.27;1.88;;;28.30;99.90;;;;;;5105325;28;20199;-76
2023/03/05 08:06:01;;;;;;;6.68;1.63;;;28.00;99.90;;;;;;5093932;28;20195;-77
2023/03/05 08:08:32;;;;;;;8.65;1.80;;;27.70;99.90;;;;;;5104710;28;20194;-79
2023/03/05 08:11:09;;;;;;;7.15;2.00;;;27.60;99.90;;;;;;5113417;28;20223;-80
2023/03/05 08:13:41;;;;;;;5.90;1.65;;;27.40;99.90;;;;;;5111292;28;20191;-79
2023/03/05 08:16:14;;;;;;;6.40;1.52;;;27.30;99.90;;;;;;5105747;28;20223;-79
2023/03/05 08:18:45;;;;;;;8.88;1.80;;;27.20;99.90;;;;;;5107909;28;20194;-80
2023/03/05 08:21:21;;;;;;;7.57;1.55;;;27.10;99.90;;;;;;5113846;28;20194;-79
2023/03/05 08:23:52;;;;;;;9.73;1.90;;;27.10;99.90;;;;;;5107516;28;20221;-80
2023/03/05 08:26:29;;;;;;;8.38;1.70;;;27.00;99.90;;;;;;5113459;28;20202;-80
2023/03/05 08:29:01;;;;;;;8.75;1.90;;;26.90;99.90;;;;;;5112948;28;20665;-77
2023/03/05 08:31:33;;;;;;;10.05;2.20;;;26.70;99.90;;;;;;5095843;28;20712;-77
2023/03/05 08:34:05;;;;;;;6.68;1.75;;;26.70;99.90;;;;;;5096318;28;20215;-79
2023/03/05 08:36:36;;;;;;;13.10;2.05;;;26.60;99.90;;;;;;5092466;28;20198;-80
2023/03/05 08:39:08;;;;;;;14.32;1.88;;;26.50;99.90;;;;;;5103986;28;20198;-78
2023/03/05 08:41:41;;;;;;;9.40;2.00;;;26.50;99.90;;;;;;5092047;28;20230;-79
2023/03/05 08:44:12;;;;;;;6.18;2.00;;;26.50;99.90;;;;;;5091598;28;20210;-78
2023/03/05 08:46:43;;;;;;;8.82;2.17;;;26.40;99.90;;;;;;5107728;28;20661;-77
2023/03/05 08:49:14;;;;;;;12.18;2.10;;;26.40;99.90;;;;;;5092758;28;20195;-80
2023/03/05 08:51:46;;;;;;;12.50;1.83;;;26.40;99.90;;;;;;5111035;28;20230;-78
2023/03/05 08:54:17;;;;;;;10.70;1.80;;;26.40;99.90;;;;;;5110911;28;20195;-79
2023/03/05 08:56:50;;;;;;;11.07;1.90;;;26.40;99.90;;;;;;5097398;28;20199;-79
2023/03/05 08:59:21;;;;;;;9.25;1.88;;;26.40;99.90;;;;;;5106988;28;20217;-78
2023/03/05 09:01:53;;;;;;;6.75;1.90;;;26.30;99.90;;;;;;5105470;28;20207;-81
2023/03/05 09:04:24;;;;;;;8.73;1.65;;;26.30;99.90;;;;;;5119905;28;20194;-77
2023/03/05 09:06:55;;;;;;;8.40;1.80;;;26.30;99.90;;;;;;5096890;28;20658;-80
2023/03/05 09:09:28;;;;;;;8.35;1.45;;;26.30;99.90;;;;;;5094960;28;20195;-78
2023/03/05 09:12:03;;;;;;;9.70;2.03;;;26.30;99.90;;;;;;5094775;28;20276;-78
2023/03/05 09:14:34;;;;;;;11.77;1.60;;;26.30;99.90;;;;;;5099606;28;20202;-79
2023/03/05 09:17:06;;;;;;;9.23;1.90;;;26.20;99.90;;;;;;5106025;28;20208;-77
2023/03/05 09:19:37;;;;;;;9.50;1.73;;;26.20;99.90;;;;;;5104297;28;20199;-79
2023/03/05 09:22:08;;;;;;;10.75;1.92;;;26.20;99.90;;;;;;5114230;27;20201;-77
2023/03/05 09:24:40;;;;;;;11.50;1.90;;;26.20;99.90;;;;;;5093998;28;20227;-78
2023/03/05 09:27:17;;;;;;;10.65;2.15;;;26.20;99.90;;;;;;5098891;28;20194;-78
2023/03/05 09:29:48;;;;;;;11.40;2.10;;;26.20;99.90;;;;;;5101455;28;20199;-79
2023/03/05 09:32:19;;;;;;;9.75;1.90;;;26.20;99.90;;;;;;5099614;28;20589;-80
2023/03/05 09:34:50;;;;;;;13.57;1.80;;;26.10;99.90;;;;;;5093544;28;20219;-78
2023/03/05 09:37:21;;;;;;;8.43;1.60;;;26.10;99.90;;;;;;5101892;28;20191;-80
2023/03/05 09:39:52;;;;;;;9.75;1.88;;;26.10;99.90;;;;;;5093608;28;20202;-80
2023/03/05 09:42:47;;;;;;;11.18;2.00;;;26.10;99.90;;;;;;5099786;28;20646;-78
2023/03/05 09:45:24;;;;;;;7.82;1.55;;;26.00;99.90;;;;;;5115293;28;20199;-79
2023/03/05 09:48:04;;;;;;;8.25;1.73;;;25.90;99.90;;;;;;5102793;28;20199;-78
2023/03/05 09:50:43;;;;;;;7.72;1.88;;;26.00;99.90;;;;;;5115274;27;20218;-78
2023/03/05 09:53:37;;;;;;;9.52;1.92;;;26.00;99.90;;;;;;5105021;28;20265;-80
2023/03/05 09:56:13;;;;;;;7.25;1.70;;;26.00;99.90;;;;;;5094435;28;20203;-78
2023/03/05 09:58:48;;;;;;;10.32;2.42;;;26.00;99.90;;;;;;5108320;28;20190;-78
2023/03/05 10:01:23;;;;;;;10.10;1.70;;;26.00;99.90;;;;;;5115378;28;20575;-78
2023/03/05 10:03:58;;;;;;;9.30;2.20;;;25.90;99.90;;;;;;5099388;28;20202;-79
2023/03/05 10:06:32;;;;;;;10.85;1.70;;;25.80;99.90;;;;;;5116288;28;20171;-79
2023/03/05 10:09:09;;;;;;;10.18;2.00;;;25.80;99.90;;;;;;5111196;27;20237;-78
2023/03/05 10:11:55;;;;;;;11.63;2.05;;;25.80;99.90;;;;;;5095015;28;20230;-82
2023/03/05 10:14:31;;;;;;;11.65;2.10;;;25.80;99.90;;;;;;5094508;28;20286;-77
2023/03/05 10:17:20;;;;;;;10.38;2.00;;;25.80;99.90;;;;;;5113197;28;20189;-77
2023/03/05 10:20:03;;;;;;;10.07;2.03;;;25.80;99.90;;;;;;5077756;28;20218;-78
2023/03/05 10:22:40;;;;;;;9.18;1.85;;;25.80;99.90;;;;;;5095526;28;20191;-83
2023/03/05 10:25:21;;;;;;;12.55;2.30;;;25.80;99.90;;;;;;5101758;28;20230;-77
2023/03/05 10:27:56;;;;;;;7.47;1.77;;;25.80;99.90;;;;;;5106473;28;20194;-78
2023/03/05 10:30:53;;;;;;;11.18;2.00;;;25.80;99.90;;;;;;5114905;28;20581;-78
2023/03/05 10:33:32;;;;;;;9.90;1.92;;;25.80;99.90;;;;;;5100190;28;20278;-78
2023/03/05 10:36:23;;;;;;;7.82;2.15;;;25.80;99.90;;;;;;5112727;28;20219;-78
2023/03/05 10:39:25;;;;;;;9.57;2.10;;;25.70;99.90;;;;;;5102179;28;20199;-79
2023/03/05 10:42:04;;;;;;;12.00;2.08;;;25.70;99.90;;;;;;5100184;28;20202;-79
2023/03/05 10:44:42;;;;;;;6.97;1.70;;;25.60;99.90;;;;;;5108145;28;20186;-78
2023/03/05 10:47:26;;;;;;;10.38;2.20;;;25.60;99.90;;;;;;5116548;28;20198;-78
2023/03/05 10:49:58;;;;;;;10.27;2.00;;;25.70;99.90;;;;;;5111229;28;20195;-78
2023/03/05 10:52:35;;;;;;;13.05;2.47;;;25.70;99.90;;;;;;5109014;28;20266;-78
2023/03/05 10:55:15;;;;;;;10.68;2.17;;;25.60;99.90;;;;;;5106593;28;20585;-78
2023/03/05 10:57:46;;;;;;;7.72;1.85;;;25.70;99.90;;;;;;5121171;28;20652;-78
2023/03/05 11:00:23;;;;;;;9.13;1.90;;;25.70;99.90;;;;;;5109982;28;20301;-77
2023/03/05 11:03:01;;;;;;;10.02;2.00;;;25.70;99.90;;;;;;5101636;28;20206;-77
2023/03/05 11:06:01;;;;;;;9.30;1.85;;;25.70;99.90;;;;;;5117785;28;20194;-77
2023/03/05 11:08:34;;;;;;;10.57;2.20;;;25.70;99.90;;;;;;5120967;28;20195;-78
2023/03/05 11:11:17;;;;;;;10.82;1.95;;;25.70;99.90;;;;;;5109916;28;20222;-78
2023/03/05 11:13:58;;;;;;;10.75;2.10;;;25.70;99.90;;;;;;5107689;28;20202;-76
2023/03/05 11:16:34;;;;;;;8.18;2.00;;;25.70;99.90;;;;;;5121370;28;20195;-78
2023/03/05 11:19:22;;;;;;;8.52;1.88;;;25.70;99.90;;;;;;5115359;28;20346;-78
2023/03/05 11:22:15;;;;;;;10.52;2.00;;;25.70;99.90;;;;;;5101759;28;20214;-78
2023/03/05 11:25:04;;;;;;;9.73;1.92;;;25.60;99.90;;;;;;5101271;28;20227;-79
2023/03/05 11:27:38;;;;;;;11.00;2.20;;;25.60;99.90;;;;;;5102050;28;20559;-76
2023/03/05 11:30:22;;;;;;;10.88;2.00;;;25.60;99.90;;;;;;5115118;28;20220;-77
2023/03/05 11:33:08;;;;;;;7.60;1.92;;;25.50;99.90;;;;;;5115129;28;22153;-78
2023/03/05 11:35:43;;;;;;;9.80;2.25;;;25.60;99.90;;;;;;5122762;28;20221;-76
2023/03/05 11:38:24;;;;;;;9.57;2.00;;;25.50;99.90;;;;;;5113331;28;20199;-77
2023/03/05 11:40:58;;;;;;;8.32;1.90;;;25.50;99.90;;;;;;5103816;28;20211;-78
2023/03/05 11:43:33;;;;;;;7.20;1.92;;;25.50;99.90;;;;;;5120360;28;20201;-77
2023/03/05 11:46:05;;;;;;;9.43;2.10;;;25.50;99.90;;;;;;5117977;28;20190;-77
2023/03/05 11:48:40;;;;;;;9.20;2.00;;;25.50;99.90;;;;;;5106831;28;20217;-77
2023/03/05 11:51:21;;;;;;;6.95;1.90;;;25.50;99.90;;;;;;5111279;28;20213;-76
2023/03/05 11:54:00;;;;;;;7.25;1.75;;;25.50;99.90;;;;;;5121150;28;20277;-78
2023/03/05 11:56:35;;;;;;;7.97;1.80;;;25.50;99.90;;;;;;5109456;28;20539;-77
2023/03/05 11:59:15;;;;;;;7.50;1.92;;;25.50;99.90;;;;;;5094785;28;20195;-77
2023/03/05 12:01:49;;;;;;;9.43;1.88;;;25.50;99.90;;;;;;5094423;28;20202;-77
2023/03/05 12:04:21;;;;;;;6.40;1.83;;;25.50;99.90;;;;;;5089112;28;20191;-77
2023/03/05 12:06:59;;;;;;;10.35;1.95;;;25.50;99.90;;;;;;5091986;28;20289;-76
2023/03/05 12:09:39;;;;;;;9.73;1.75;;;25.50;99.90;;;;;;5098583;28;20191;-76
2023/03/05 12:12:20;;;;;;;6.38;1.70;;;25.50;99.90;;;;;;5098068;28;20215;-78
2023/03/05 12:14:58;;;;;;;6.72;2.00;;;25.50;99.90;;;;;;5091945;28;20204;-77
2023/03/05 12:17:33;;;;;;;9.90;2.10;;;25.50;99.90;;;;;;5087794;28;20199;-78
2023/03/05 12:20:08;;;;;;;7.72;2.00;;;25.50;99.90;;;;;;5093104;28;20198;-77
2023/03/05 12:22:43;;;;;;;6.93;2.00;;;25.50;99.90;;;;;;5088815;28;20214;-77
2023/03/05 12:25:35;;;;;;;10.38;2.22;;;25.50;99.90;;;;;;5090891;28;20218;-78
2023/03/05 12:28:06;;;;;;;5.88;1.90;;;25.50;99.90;;;;;;5096329;28;20299;-77
2023/03/05 12:30:59;;;;;;;11.15;2.25;;;25.50;99.90;;;;;;5095695;27;20199;-77
2023/03/05 12:33:39;;;;;;;8.43;1.70;;;25.50;99.90;;;;;;5092525;28;20205;-77
2023/03/05 12:36:39;;;;;;;7.53;1.80;;;25.40;99.90;;;;;;5091069;28;20622;-77
2023/03/05 12:39:51;;;;;;;6.47;1.90;;;25.40;99.90;;;;;;5090884;28;20202;-77
2023/03/05 12:42:53;;;;;;;6.43;1.80;;;25.40;99.90;;;;;;5049454;28;20677;-77
2023/03/05 12:45:39;;;;;;;8.32;1.63;;;25.40;99.90;;;;;;5072924;28;20197;-77
2023/03/05 12:48:44;;;;;;;7.85;2.17;;;25.40;99.90;;;;;;5084404;28;20201;-76
2023/03/05 12:51:29;;;;;;;6.72;1.50;;;25.40;99.90;;;;;;5104180;28;20764;-77
2023/03/05 12:54:21;;;;;;;7.05;1.75;;;25.40;99.90;;;;;;5118555;28;20191;-77
2023/03/05 12:56:54;;;;;;;6.30;1.60;;;25.40;99.90;;;;;;5093349;28;20195;-76
2023/03/05 12:59:31;;;;;;;5.47;1.50;;;25.40;99.90;;;;;;5091703;28;20195;-77
2023/03/05 13:02:05;;;;;;;7.07;1.75;;;25.40;99.90;;;;;;5075922;28;20578;-77
2023/03/05 13:04:43;;;;;;;5.40;1.75;;;25.40;99.90;;;;;;5071548;28;20210;-77
2023/03/05 13:07:19;;;;;;;7.28;1.55;;;25.30;99.90;;;;;;5072439;27;20203;-77
2023/03/05 13:09:57;;;;;;;10.25;1.85;;;25.30;99.90;;;;;;5078459;27;20203;-76
2023/03/05 13:12:31;;;;;;;7.13;1.42;;;25.20;99.90;;;;;;5078295;28;20226;-77
2023/03/05 13:15:08;;;;;;;6.03;1.38;;;25.20;99.90;;;;;;5071106;28;20630;-78
2023/03/05 13:17:43;;;;;;;10.32;1.77;;;25.30;99.90;;;;;;5073779;28;20568;-77
2023/03/05 13:20:32;;;;;;;6.32;1.50;;;25.30;99.90;;;;;;5072718;28;20584;-77
2023/03/05 13:23:20;;;;;;;5.07;1.40;;;25.20;99.90;;;;;;5072046;28;20366;-76